Terminal Aerodrome Forecast
Issued by NWS

Home | Current Version | Previous Version | Graphics & Text | Print | Product List | Glossary On
Versions: 1 2 3 4 5 6 7 8 9 10 11 12 13 14 15 16 17 18 19
575
FTUS43 KBIS 241727
TAFDIK
TAF
KDIK 241727Z 2418/2518 35010KT P6SM OVC008
     FM250200 35005KT P6SM OVC015
     FM250900 VRB03KT P6SM BKN008
     FM251700 03004KT P6SM OVC015=

USA.gov is the U.S. government's official web portal to all federal, state and local government web resources and services.